Time;durP1;ratioP1;P1;durP2;ratioP2;P2;SDS_P1;SDS_P2;PMS_P1;PMS_P2;Temp;Humidity;BMP_temperature;BMP_pressure;BME280_temperature;BME280_humidity;BME280_pressure;Samples;Min_cycle;Max_cycle;Signal;HPM_P1;HPM_P2
2023/07/19 00:01:20;;;;;;;20.88;8.02;;;17.80;99.90;;;;;;5080345;28;20119;-71
2023/07/19 00:03:51;;;;;;;14.30;8.05;;;17.70;99.90;;;;;;5081546;28;21057;-71
2023/07/19 00:09:39;;;;;;;19.45;7.35;;;17.60;99.90;;;;;;5082404;28;20058;-71
2023/07/19 00:12:06;;;;;;;17.27;8.25;;;17.60;99.90;;;;;;5087265;28;20059;-71
2023/07/19 00:15:06;;;;;;;14.68;7.35;;;17.60;99.90;;;;;;5084013;28;20032;-70
2023/07/19 00:17:31;;;;;;;14.40;7.93;;;17.50;99.90;;;;;;5088440;28;20035;-71
2023/07/19 00:19:57;;;;;;;14.20;7.55;;;17.60;99.90;;;;;;5079029;28;20036;-71
2023/07/19 00:22:22;;;;;;;17.00;8.18;;;17.60;99.90;;;;;;5087953;28;20040;-70
2023/07/19 00:24:48;;;;;;;16.20;7.97;;;17.50;99.90;;;;;;5086870;28;20078;-71
2023/07/19 00:27:14;;;;;;;14.60;7.88;;;17.40;99.90;;;;;;5087914;28;20489;-71
2023/07/19 00:29:39;;;;;;;11.93;7.00;;;17.30;99.90;;;;;;5086317;28;20035;-71
2023/07/19 00:32:05;;;;;;;12.45;7.57;;;17.20;99.90;;;;;;5087111;28;20129;-71
2023/07/19 00:34:31;;;;;;;17.40;8.60;;;17.20;99.90;;;;;;5086435;28;20483;-71
2023/07/19 00:36:56;;;;;;;12.60;7.40;;;17.20;99.90;;;;;;5088256;28;20046;-71
2023/07/19 00:39:22;;;;;;;13.77;7.93;;;17.20;99.90;;;;;;5093370;28;20034;-72
2023/07/19 00:42:13;;;;;;;13.52;7.40;;;17.20;99.90;;;;;;5086960;28;20027;-71
2023/07/19 00:48:19;;;;;;;14.77;7.57;;;17.10;99.90;;;;;;5089653;28;19919;-69
2023/07/19 00:51:19;;;;;;;20.10;7.03;;;17.10;99.90;;;;;;5106809;28;20031;-70
2023/07/19 00:53:47;;;;;;;16.87;7.90;;;17.00;99.90;;;;;;5103935;27;20030;-70
2023/07/19 00:56:13;;;;;;;16.60;9.07;;;17.00;99.90;;;;;;5106617;27;20432;-71
2023/07/19 00:58:40;;;;;;;12.98;8.00;;;17.00;99.90;;;;;;5109055;28;20072;-70
2023/07/19 01:01:06;;;;;;;14.50;8.07;;;17.00;99.90;;;;;;5110600;27;20109;-71
2023/07/19 01:03:32;;;;;;;13.90;7.43;;;17.00;99.90;;;;;;5111035;27;20118;-71
2023/07/19 01:05:59;;;;;;;18.25;7.55;;;17.00;99.90;;;;;;5107468;28;20035;-70
2023/07/19 01:08:24;;;;;;;12.32;6.68;;;17.00;99.90;;;;;;5109040;28;20024;-71
2023/07/19 01:10:51;;;;;;;16.15;7.35;;;17.00;99.90;;;;;;5106128;28;20084;-71
2023/07/19 01:13:16;;;;;;;16.02;7.60;;;17.00;99.90;;;;;;5109831;27;20028;-72
2023/07/19 01:15:42;;;;;;;14.30;7.65;;;17.00;99.90;;;;;;5110985;27;20042;-70
2023/07/19 01:18:08;;;;;;;15.77;7.53;;;17.00;99.90;;;;;;5107038;28;20087;-71
2023/07/19 01:20:34;;;;;;;12.25;7.20;;;16.90;99.90;;;;;;5104484;28;20354;-72
2023/07/19 01:22:59;;;;;;;16.50;6.97;;;16.80;99.90;;;;;;5106154;28;20063;-72
2023/07/19 01:25:25;;;;;;;14.27;6.85;;;16.80;99.90;;;;;;5111576;27;20058;-71
2023/07/19 01:27:51;;;;;;;13.70;7.55;;;16.80;99.90;;;;;;5106940;28;20034;-71
2023/07/19 01:30:17;;;;;;;14.10;7.45;;;16.80;99.90;;;;;;5111948;27;20035;-71
2023/07/19 01:32:44;;;;;;;11.25;6.55;;;16.80;99.90;;;;;;5112219;27;20036;-71
2023/07/19 01:35:10;;;;;;;15.50;7.40;;;16.80;99.90;;;;;;5106225;28;20497;-71
2023/07/19 01:37:36;;;;;;;13.45;6.90;;;16.90;99.90;;;;;;5106323;28;20437;-71
2023/07/19 01:40:02;;;;;;;11.30;6.95;;;16.90;99.90;;;;;;5106199;28;20031;-71
2023/07/19 01:42:27;;;;;;;14.40;7.40;;;16.80;99.90;;;;;;5111196;28;20035;-71
2023/07/19 01:44:57;;;;;;;14.93;7.30;;;16.60;99.90;;;;;;5087187;28;20027;-71
2023/07/19 01:47:22;;;;;;;14.02;7.45;;;16.60;99.90;;;;;;5110495;28;20458;-70
2023/07/19 01:49:48;;;;;;;16.95;7.68;;;16.50;99.90;;;;;;5110735;28;20058;-71
2023/07/19 01:52:15;;;;;;;19.70;7.55;;;16.60;99.90;;;;;;5092137;28;20043;-71
2023/07/19 01:54:41;;;;;;;21.67;8.68;;;16.60;99.90;;;;;;5119381;27;20467;-71
2023/07/19 01:57:08;;;;;;;16.45;8.30;;;16.60;99.90;;;;;;5111079;28;20027;-71
2023/07/19 01:59:33;;;;;;;14.80;7.88;;;16.70;99.90;;;;;;5112180;28;20066;-70
2023/07/19 02:01:59;;;;;;;20.05;7.70;;;16.70;99.90;;;;;;5110026;28;20051;-72
2023/07/19 02:04:25;;;;;;;17.60;7.40;;;16.70;99.90;;;;;;5112775;27;20183;-71
2023/07/19 02:06:50;;;;;;;15.00;7.30;;;16.80;99.90;;;;;;5108317;28;20950;-70
2023/07/19 02:09:16;;;;;;;15.57;7.53;;;16.70;99.90;;;;;;5114475;27;20043;-70
2023/07/19 02:11:41;;;;;;;15.07;7.50;;;16.60;99.90;;;;;;5112097;28;20061;-70
2023/07/19 02:14:07;;;;;;;16.10;8.18;;;16.60;99.90;;;;;;5110784;28;20678;-71
2023/07/19 02:16:34;;;;;;;16.90;7.80;;;16.60;99.90;;;;;;5112028;28;20111;-71
2023/07/19 02:19:00;;;;;;;14.90;7.07;;;16.60;99.90;;;;;;5108585;27;20055;-71
2023/07/19 02:21:25;;;;;;;18.60;7.63;;;16.40;99.90;;;;;;5112110;27;20090;-70
2023/07/19 02:23:51;;;;;;;16.45;7.57;;;16.30;99.90;;;;;;5110695;27;20033;-72
2023/07/19 02:26:17;;;;;;;19.90;7.50;;;16.20;99.90;;;;;;5111240;28;20031;-71
2023/07/19 02:28:42;;;;;;;15.60;7.57;;;16.20;99.90;;;;;;5110372;27;20468;-71
2023/07/19 02:31:08;;;;;;;21.63;8.38;;;16.20;99.90;;;;;;5109569;28;20024;-71
2023/07/19 02:33:34;;;;;;;13.18;7.53;;;16.10;99.90;;;;;;5111864;28;20039;-71
2023/07/19 02:35:59;;;;;;;15.57;7.55;;;16.10;99.90;;;;;;5110984;28;20035;-71
2023/07/19 02:38:25;;;;;;;19.60;8.75;;;16.10;99.90;;;;;;5109929;27;20028;-70
2023/07/19 02:41:00;;;;;;;16.30;8.30;;;16.10;99.90;;;;;;5114021;27;20035;-71
2023/07/19 02:43:27;;;;;;;16.52;8.10;;;16.00;99.90;;;;;;5111554;28;20063;-71
2023/07/19 02:45:53;;;;;;;14.70;8.27;;;16.00;99.90;;;;;;5110631;28;20376;-70
2023/07/19 02:48:20;;;;;;;19.90;8.00;;;16.10;99.90;;;;;;5090829;28;20031;-71
2023/07/19 02:50:46;;;;;;;19.65;8.02;;;16.20;99.90;;;;;;5109541;27;20035;-71
2023/07/19 02:53:12;;;;;;;13.45;7.70;;;16.20;99.90;;;;;;5110835;28;20691;-71
2023/07/19 02:55:39;;;;;;;16.20;7.63;;;16.30;99.90;;;;;;5119496;27;20032;-71
2023/07/19 02:58:05;;;;;;;16.70;8.15;;;16.30;99.90;;;;;;5110432;27;20109;-71
2023/07/19 03:00:33;;;;;;;22.15;8.30;;;16.30;99.90;;;;;;5110074;28;20032;-71
2023/07/19 03:02:59;;;;;;;12.60;7.75;;;16.40;99.90;;;;;;5107928;28;20042;-71
2023/07/19 03:05:24;;;;;;;22.98;8.43;;;16.40;99.90;;;;;;5103188;28;20123;-71
2023/07/19 03:07:51;;;;;;;18.60;7.75;;;16.30;99.90;;;;;;5110811;27;20036;-71
2023/07/19 03:10:17;;;;;;;23.63;8.02;;;16.40;99.90;;;;;;5101051;28;20035;-71
2023/07/19 03:12:43;;;;;;;17.98;7.80;;;16.30;99.90;;;;;;5101393;28;20368;-72
2023/07/19 03:15:09;;;;;;;28.38;9.00;;;16.30;99.90;;;;;;5098239;28;20104;-70
2023/07/19 03:17:34;;;;;;;19.10;8.00;;;16.30;99.90;;;;;;5092180;28;20024;-72
2023/07/19 03:20:00;;;;;;;16.27;7.38;;;16.30;99.90;;;;;;5094117;28;20101;-71
2023/07/19 03:22:26;;;;;;;20.95;7.80;;;16.20;99.90;;;;;;5102253;27;20066;-71
2023/07/19 03:24:51;;;;;;;19.70;8.45;;;16.20;99.90;;;;;;5102435;28;20111;-70
2023/07/19 03:27:17;;;;;;;17.13;8.23;;;16.10;99.90;;;;;;5098559;27;20735;-72
2023/07/19 03:29:42;;;;;;;23.80;9.20;;;16.10;99.90;;;;;;5098546;28;20090;-72
2023/07/19 03:32:08;;;;;;;15.02;7.30;;;16.20;99.90;;;;;;5102345;28;20082;-73
2023/07/19 03:34:34;;;;;;;16.10;7.57;;;16.30;99.90;;;;;;5103295;27;20057;-71
2023/07/19 03:37:00;;;;;;;16.45;7.40;;;16.20;99.90;;;;;;5111351;27;20020;-71
2023/07/19 03:39:26;;;;;;;19.05;8.13;;;16.20;99.90;;;;;;5090757;28;20027;-71
2023/07/19 03:41:51;;;;;;;15.70;7.35;;;16.20;99.90;;;;;;5109944;28;20111;-71
2023/07/19 03:44:17;;;;;;;19.02;8.13;;;16.10;99.90;;;;;;5097992;28;20649;-71
2023/07/19 03:46:43;;;;;;;15.68;7.30;;;16.00;99.90;;;;;;5110920;27;20028;-72
2023/07/19 03:49:09;;;;;;;19.90;7.60;;;16.00;99.90;;;;;;5108634;28;20051;-71
2023/07/19 03:51:35;;;;;;;15.20;7.40;;;16.00;99.90;;;;;;5109084;27;20042;-70
2023/07/19 03:54:00;;;;;;;14.23;8.07;;;16.00;99.90;;;;;;5113340;27;20031;-72
2023/07/19 03:56:26;;;;;;;13.38;6.93;;;16.00;99.90;;;;;;5102579;27;20043;-72
2023/07/19 03:58:52;;;;;;;15.98;8.02;;;16.00;99.90;;;;;;5099666;28;20067;-69
2023/07/19 04:01:17;;;;;;;15.57;7.28;;;16.00;99.90;;;;;;5099041;27;20035;-69
2023/07/19 04:03:43;;;;;;;14.43;7.32;;;16.00;99.90;;;;;;5107523;28;20097;-69
2023/07/19 04:06:09;;;;;;;22.30;7.20;;;16.00;99.90;;;;;;5096336;28;20036;-74
2023/07/19 04:08:35;;;;;;;18.52;7.32;;;16.00;99.90;;;;;;5104717;28;20031;-70
2023/07/19 04:11:01;;;;;;;15.15;6.80;;;15.90;99.90;;;;;;5107183;28;20046;-67
2023/07/19 04:13:27;;;;;;;16.23;8.30;;;16.00;99.90;;;;;;5101520;28;20035;-68
2023/07/19 04:15:53;;;;;;;15.10;7.18;;;16.10;99.90;;;;;;5101041;28;20488;-69
2023/07/19 04:18:19;;;;;;;19.27;7.72;;;16.10;99.90;;;;;;5106806;28;20062;-68
2023/07/19 04:20:45;;;;;;;15.30;7.30;;;16.10;99.90;;;;;;5106097;27;20050;-68
2023/07/19 04:23:11;;;;;;;16.20;7.25;;;16.00;99.90;;;;;;5093342;28;20460;-68
2023/07/19 04:25:37;;;;;;;11.68;6.75;;;16.00;99.90;;;;;;5109599;27;20032;-67
2023/07/19 04:28:03;;;;;;;19.77;7.70;;;16.00;99.90;;;;;;5100288;28;20472;-68
2023/07/19 04:30:28;;;;;;;12.82;7.15;;;16.00;99.90;;;;;;5102675;28;20031;-69
2023/07/19 04:32:54;;;;;;;20.77;7.63;;;16.20;99.90;;;;;;5107346;28;20061;-69
2023/07/19 04:35:22;;;;;;;15.27;7.97;;;16.30;99.90;;;;;;5097419;28;20036;-70
2023/07/19 04:37:49;;;;;;;14.40;7.47;;;16.40;99.90;;;;;;5102115;28;20111;-69
2023/07/19 04:40:15;;;;;;;16.05;8.55;;;16.60;99.90;;;;;;5103634;28;20505;-69
2023/07/19 04:42:41;;;;;;;22.25;9.38;;;16.70;99.90;;;;;;5101420;28;20138;-68
2023/07/19 04:45:07;;;;;;;18.10;9.48;;;16.90;99.90;;;;;;5099743;28;20031;-72
2023/07/19 04:47:32;;;;;;;22.13;9.30;;;17.00;99.90;;;;;;5099513;28;20455;-70
2023/07/19 04:49:58;;;;;;;21.00;9.68;;;17.00;99.90;;;;;;5095846;28;20101;-66
2023/07/19 04:52:23;;;;;;;19.27;9.80;;;17.10;99.90;;;;;;5099694;28;20032;-71
2023/07/19 04:54:49;;;;;;;19.50;9.50;;;17.10;99.90;;;;;;5108519;27;20024;-72
2023/07/19 04:57:17;;;;;;;21.10;10.43;;;17.20;99.90;;;;;;5097094;28;20032;-69
2023/07/19 04:59:43;;;;;;;23.17;10.23;;;17.30;99.90;;;;;;5089633;28;20059;-70
2023/07/19 05:02:09;;;;;;;22.65;10.60;;;17.50;99.90;;;;;;5098398;28;20475;-70
2023/07/19 05:04:35;;;;;;;19.40;10.27;;;17.60;99.90;;;;;;5104976;28;20093;-71
2023/07/19 05:07:00;;;;;;;22.10;9.75;;;17.60;99.90;;;;;;5098306;28;20036;-67
2023/07/19 05:09:26;;;;;;;18.88;10.20;;;17.70;99.90;;;;;;5100330;28;20036;-66
2023/07/19 05:11:51;;;;;;;20.40;9.98;;;17.70;99.90;;;;;;5104439;28;20068;-68
2023/07/19 05:14:17;;;;;;;21.55;10.52;;;17.80;99.90;;;;;;5103105;28;20039;-69
2023/07/19 05:16:43;;;;;;;21.50;9.63;;;17.80;99.90;;;;;;5101716;28;20032;-69
2023/07/19 05:19:09;;;;;;;19.13;9.38;;;17.90;99.90;;;;;;5098518;28;20028;-70
2023/07/19 05:21:35;;;;;;;19.55;9.00;;;18.00;99.90;;;;;;5099286;28;20354;-69
2023/07/19 05:24:01;;;;;;;20.70;9.85;;;18.10;99.90;;;;;;5104388;27;20036;-66
2023/07/19 05:26:26;;;;;;;19.48;9.93;;;18.10;99.90;;;;;;5095314;28;20084;-71
2023/07/19 05:28:52;;;;;;;21.00;10.50;;;18.20;99.90;;;;;;5099843;28;20035;-69
2023/07/19 05:31:19;;;;;;;20.73;10.30;;;18.20;99.90;;;;;;5106120;28;20039;-68
2023/07/19 05:33:44;;;;;;;21.95;9.93;;;18.30;99.90;;;;;;5100137;28;20066;-71
2023/07/19 05:36:11;;;;;;;19.02;10.55;;;18.30;99.90;;;;;;5096547;28;20067;-68
2023/07/19 05:38:36;;;;;;;19.67;10.27;;;18.40;99.90;;;;;;5104335;28;20020;-72
2023/07/19 05:41:03;;;;;;;20.70;10.40;;;18.40;99.90;;;;;;5103001;28;20084;-66
2023/07/19 05:43:32;;;;;;;27.15;11.02;;;18.50;99.90;;;;;;5096865;28;20036;-68
2023/07/19 05:46:03;;;;;;;19.60;10.07;;;18.50;99.90;;;;;;5104316;28;20038;-69
2023/07/19 05:48:28;;;;;;;23.90;11.30;;;18.60;99.90;;;;;;5107406;28;20055;-67
2023/07/19 05:50:54;;;;;;;19.20;10.02;;;18.70;99.90;;;;;;5107794;28;20032;-70
2023/07/19 05:53:20;;;;;;;18.27;9.98;;;18.70;99.90;;;;;;5094341;28;20122;-71
2023/07/19 05:55:45;;;;;;;18.08;9.88;;;18.80;99.90;;;;;;5110518;28;20039;-72
2023/07/19 05:58:11;;;;;;;20.02;10.00;;;18.90;99.90;;;;;;5098233;28;20072;-71
2023/07/19 06:00:40;;;;;;;16.83;9.48;;;19.00;99.90;;;;;;5106954;28;20035;-69
2023/07/19 06:03:05;;;;;;;22.23;9.88;;;19.10;99.90;;;;;;5106894;28;20108;-69
2023/07/19 06:05:32;;;;;;;19.60;9.50;;;19.20;99.90;;;;;;5094560;28;20547;-69
2023/07/19 06:07:58;;;;;;;19.92;9.57;;;19.30;99.90;;;;;;5099701;28;20036;-69
2023/07/19 06:10:23;;;;;;;18.83;9.00;;;19.40;99.90;;;;;;5103835;28;20031;-71
2023/07/19 06:12:49;;;;;;;17.65;9.90;;;19.50;99.90;;;;;;5102512;28;20034;-70
2023/07/19 06:15:15;;;;;;;16.98;8.43;;;19.60;99.90;;;;;;5089642;28;20039;-69
2023/07/19 06:17:42;;;;;;;18.35;8.68;;;19.70;99.90;;;;;;5103623;28;20024;-69
2023/07/19 06:20:10;;;;;;;14.00;8.35;;;19.90;99.90;;;;;;5102575;28;20492;-70
2023/07/19 06:22:37;;;;;;;17.15;7.72;;;19.90;99.90;;;;;;5107118;28;20122;-70
2023/07/19 06:25:02;;;;;;;17.05;7.93;;;19.90;99.90;;;;;;5115474;28;20106;-73
2023/07/19 06:27:28;;;;;;;15.48;7.57;;;19.90;99.90;;;;;;5101690;28;20114;-76
2023/07/19 06:29:54;;;;;;;17.33;8.25;;;19.90;99.90;;;;;;5087976;28;20314;-72
2023/07/19 06:32:20;;;;;;;20.60;7.82;;;20.00;99.90;;;;;;5100213;28;20525;-76
2023/07/19 06:34:46;;;;;;;13.10;7.68;;;20.00;99.90;;;;;;5108020;28;20035;-72
2023/07/19 06:37:13;;;;;;;17.50;8.20;;;20.10;99.90;;;;;;5102797;28;20052;-74
2023/07/19 06:39:39;;;;;;;17.23;8.25;;;20.20;99.90;;;;;;5095541;28;20058;-74
2023/07/19 06:42:05;;;;;;;19.45;7.88;;;20.30;99.90;;;;;;5102434;28;20039;-74
2023/07/19 06:44:31;;;;;;;14.13;7.82;;;20.50;99.90;;;;;;5107760;28;20089;-74
2023/07/19 06:46:59;;;;;;;17.10;7.43;;;20.60;99.90;;;;;;5104409;28;20028;-70
2023/07/19 06:49:25;;;;;;;16.63;7.10;;;20.70;99.90;;;;;;5090563;28;20127;-71
2023/07/19 06:51:50;;;;;;;17.48;7.47;;;20.70;99.90;;;;;;5106138;28;20114;-75
2023/07/19 06:54:16;;;;;;;15.40;7.35;;;20.80;99.90;;;;;;5106771;27;20039;-73
2023/07/19 06:56:42;;;;;;;14.07;7.25;;;20.90;99.90;;;;;;5110824;28;20069;-74
2023/07/19 06:59:08;;;;;;;19.08;7.30;;;20.90;99.90;;;;;;5110194;28;20032;-71
2023/07/19 07:01:33;;;;;;;13.15;7.18;;;21.20;99.90;;;;;;5103344;28;20028;-75
2023/07/19 07:03:59;;;;;;;11.70;6.90;;;21.30;99.90;;;;;;5106610;28;20459;-77
2023/07/19 07:06:24;;;;;;;17.50;6.90;;;21.30;99.90;;;;;;5105302;28;20181;-76
2023/07/19 07:08:50;;;;;;;14.25;6.63;;;21.50;99.90;;;;;;5107306;28;20028;-74
2023/07/19 07:11:16;;;;;;;13.23;6.60;;;21.60;99.90;;;;;;5103512;28;20424;-70
2023/07/19 07:13:41;;;;;;;11.25;6.80;;;21.60;99.90;;;;;;5105581;28;20032;-69
2023/07/19 07:16:07;;;;;;;12.73;6.43;;;21.70;99.90;;;;;;5100041;28;20053;-69
2023/07/19 07:18:33;;;;;;;13.23;7.20;;;21.60;99.90;;;;;;5102476;27;21023;-70
2023/07/19 07:20:58;;;;;;;19.30;7.30;;;21.70;99.90;;;;;;5107237;28;20035;-71
2023/07/19 07:23:24;;;;;;;11.20;6.85;;;21.80;99.90;;;;;;5103973;28;20111;-70
2023/07/19 07:25:53;;;;;;;14.75;6.65;;;21.90;99.90;;;;;;5106162;27;20023;-71
2023/07/19 07:28:19;;;;;;;11.95;6.65;;;22.00;99.90;;;;;;5102925;28;20027;-71
2023/07/19 07:30:45;;;;;;;14.27;6.57;;;22.10;99.90;;;;;;5101771;28;20105;-70
2023/07/19 07:33:10;;;;;;;20.48;6.95;;;22.10;99.90;;;;;;5101946;28;20038;-68
2023/07/19 07:35:36;;;;;;;17.15;6.30;;;22.10;99.90;;;;;;5104678;28;20124;-72
2023/07/19 07:38:02;;;;;;;12.68;6.60;;;22.00;99.90;;;;;;5108103;28;20046;-71
2023/07/19 07:40:28;;;;;;;13.35;6.75;;;22.10;99.90;;;;;;5105132;28;20051;-72
2023/07/19 07:42:54;;;;;;;20.50;6.60;;;22.20;99.90;;;;;;5112191;27;20059;-73
2023/07/19 07:45:19;;;;;;;10.20;5.85;;;22.30;99.90;;;;;;5103724;27;20027;-71
2023/07/19 07:47:45;;;;;;;14.90;6.90;;;22.40;99.90;;;;;;5109564;28;20032;-70
2023/07/19 07:50:11;;;;;;;11.77;6.22;;;22.60;99.90;;;;;;5100969;28;20063;-71
2023/07/19 07:52:37;;;;;;;11.50;5.75;;;22.80;99.90;;;;;;5102527;28;20081;-74
2023/07/19 07:55:06;;;;;;;11.85;5.50;;;22.90;99.90;;;;;;5107098;27;20035;-71
2023/07/19 07:57:37;;;;;;;13.85;6.18;;;23.00;99.90;;;;;;5102814;28;20023;-72
2023/07/19 08:00:06;;;;;;;15.05;5.93;;;22.70;99.90;;;;;;5106582;27;20472;-72
2023/07/19 08:02:32;;;;;;;16.00;6.50;;;22.50;99.90;;;;;;5106047;27;20031;-69
2023/07/19 08:04:57;;;;;;;11.43;6.25;;;22.40;99.90;;;;;;5111363;27;20358;-72
2023/07/19 08:07:25;;;;;;;10.85;5.75;;;22.60;99.90;;;;;;5109124;28;20032;-71
2023/07/19 08:09:52;;;;;;;17.63;6.45;;;22.80;99.90;;;;;;5109899;28;20067;-73
2023/07/19 08:12:21;;;;;;;19.90;6.57;;;22.80;99.90;;;;;;5110208;27;20487;-71
2023/07/19 08:14:46;;;;;;;12.82;6.60;;;22.80;99.90;;;;;;5130980;27;20111;-75
2023/07/19 08:17:12;;;;;;;12.68;6.60;;;22.70;99.90;;;;;;5105467;28;20023;-71
2023/07/19 08:19:38;;;;;;;17.45;6.30;;;22.70;99.90;;;;;;5104718;28;20035;-69
2023/07/19 08:22:05;;;;;;;20.05;7.07;;;22.70;99.90;;;;;;5107538;28;20181;-69
2023/07/19 08:24:31;;;;;;;19.33;7.07;;;22.60;99.90;;;;;;5119352;27;20031;-69
2023/07/19 08:26:58;;;;;;;13.98;6.10;;;22.90;99.90;;;;;;5111830;27;20032;-70
2023/07/19 08:29:26;;;;;;;11.38;6.53;;;23.00;99.90;;;;;;5108581;28;20490;-71
2023/07/19 08:31:51;;;;;;;13.15;6.90;;;23.30;99.90;;;;;;5106797;28;20031;-72
2023/07/19 08:34:18;;;;;;;14.32;6.50;;;23.40;99.90;;;;;;5104876;28;20019;-70
2023/07/19 08:36:43;;;;;;;13.50;7.18;;;23.40;99.90;;;;;;5109440;28;20078;-72
2023/07/19 08:39:09;;;;;;;12.52;6.20;;;23.40;99.90;;;;;;5108315;28;20114;-71
2023/07/19 08:41:38;;;;;;;13.85;6.40;;;23.50;99.90;;;;;;5108626;28;20027;-70
2023/07/19 08:44:05;;;;;;;17.38;6.18;;;23.80;99.90;;;;;;5106460;28;20487;-71
2023/07/19 08:46:33;;;;;;;11.48;6.40;;;23.70;99.90;;;;;;5106950;28;20015;-75
2023/07/19 08:48:59;;;;;;;14.60;6.00;;;23.80;99.90;;;;;;5104866;27;20092;-74
2023/07/19 08:51:26;;;;;;;14.80;5.95;;;23.70;99.90;;;;;;5107855;28;20073;-70
2023/07/19 08:53:59;;;;;;;11.05;6.15;;;23.90;99.90;;;;;;5107998;27;20062;-69
2023/07/19 08:56:25;;;;;;;14.20;5.30;;;24.20;99.90;;;;;;5105284;28;20111;-71
2023/07/19 08:58:51;;;;;;;10.75;4.75;;;24.50;99.90;;;;;;5107246;28;20051;-71
2023/07/19 09:01:17;;;;;;;12.10;4.82;;;24.70;99.90;;;;;;5107690;28;20070;-71
2023/07/19 09:03:42;;;;;;;11.23;5.20;;;25.00;99.90;;;;;;5107900;28;20042;-68
2023/07/19 09:06:08;;;;;;;9.43;4.60;;;25.10;99.90;;;;;;5104444;28;20031;-74
2023/07/19 09:08:36;;;;;;;12.27;5.05;;;25.10;99.90;;;;;;5105723;28;20893;-66
2023/07/19 09:11:01;;;;;;;8.02;4.85;;;25.00;99.90;;;;;;5107333;28;20035;-69
2023/07/19 09:13:31;;;;;;;14.93;5.05;;;24.90;99.90;;;;;;5108008;28;20089;-68
2023/07/19 09:15:57;;;;;;;11.97;4.53;;;25.10;99.90;;;;;;5108520;28;20475;-71
2023/07/19 09:18:28;;;;;;;14.63;4.22;;;25.30;99.90;;;;;;5107152;28;20115;-70
2023/07/19 09:20:58;;;;;;;10.50;4.00;;;25.60;99.90;;;;;;5107291;28;20040;-70
2023/07/19 09:23:24;;;;;;;;;;;25.70;99.90;;;;;;5108424;28;20031;-71
2023/07/19 09:25:54;;;;;;;8.93;3.55;;;26.00;99.90;;;;;;5111339;27;19915;-71
2023/07/19 09:28:24;;;;;;;7.32;3.65;;;26.10;99.40;;;;;;5085359;28;20719;-70
2023/07/19 09:31:03;;;;;;;9.63;3.60;;;25.90;96.30;;;;;;5104004;28;20110;-72
2023/07/19 09:33:31;;;;;;;11.00;3.80;;;26.10;99.60;;;;;;5106392;28;20088;-75
2023/07/19 09:35:58;;;;;;;18.23;4.22;;;26.40;99.60;;;;;;5108320;28;20346;-70
2023/07/19 09:38:25;;;;;;;11.10;3.42;;;26.80;96.40;;;;;;5099697;28;20077;-70
2023/07/19 09:40:52;;;;;;;8.65;3.53;;;26.70;95.60;;;;;;5107763;28;20038;-71
2023/07/19 09:43:18;;;;;;;7.82;3.33;;;26.80;96.10;;;;;;5106876;28;20053;-71
2023/07/19 09:45:46;;;;;;;8.57;3.55;;;27.10;93.40;;;;;;5107443;28;20039;-73
2023/07/19 09:48:17;;;;;;;9.73;3.58;;;27.30;92.40;;;;;;5107753;28;20024;-71
2023/07/19 09:50:46;;;;;;;7.47;3.90;;;27.50;92.60;;;;;;5116141;28;20098;-69
2023/07/19 09:53:13;;;;;;;9.65;3.80;;;27.40;91.40;;;;;;5107160;28;20032;-71
2023/07/19 09:55:40;;;;;;;10.02;3.70;;;27.50;90.90;;;;;;5113830;28;20098;-72
2023/07/19 09:58:11;;;;;;;16.17;3.83;;;27.50;92.30;;;;;;5108454;28;20036;-71
2023/07/19 10:00:37;;;;;;;6.25;3.80;;;27.20;88.90;;;;;;5102335;28;20027;-71
2023/07/19 10:03:07;;;;;;;8.10;4.57;;;27.00;91.20;;;;;;5108214;28;20062;-71
2023/07/19 10:05:37;;;;;;;12.05;4.07;;;27.10;91.60;;;;;;5113308;28;20038;-71
2023/07/19 10:08:06;;;;;;;12.35;4.13;;;27.00;91.80;;;;;;5107105;28;20764;-70
2023/07/19 10:10:36;;;;;;;6.53;4.10;;;26.50;92.10;;;;;;5109782;28;20039;-71
2023/07/19 10:13:02;;;;;;;10.50;4.28;;;26.30;92.40;;;;;;5111494;27;20054;-71
2023/07/19 10:15:28;;;;;;;8.07;4.30;;;26.30;91.30;;;;;;5112639;27;20441;-71
2023/07/19 10:17:58;;;;;;;12.55;4.30;;;26.30;92.30;;;;;;5107365;27;20114;-72
2023/07/19 10:20:35;;;;;;;7.07;3.95;;;26.50;93.30;;;;;;5111149;28;20475;-71
2023/07/19 10:23:06;;;;;;;12.63;4.30;;;26.90;91.60;;;;;;5113462;27;20023;-71
2023/07/19 10:25:33;;;;;;;16.08;4.13;;;27.40;90.90;;;;;;5111099;27;20031;-72
2023/07/19 10:28:09;;;;;;;4.97;3.42;;;27.60;86.40;;;;;;5109477;28;20031;-71
2023/07/19 10:30:45;;;;;;;8.80;3.45;;;27.30;85.10;;;;;;5114085;27;20188;-71
2023/07/19 10:33:28;;;;;;;7.75;3.60;;;27.30;84.80;;;;;;5111055;28;20028;-73
2023/07/19 10:35:54;;;;;;;8.48;3.67;;;27.10;84.20;;;;;;5102856;28;20031;-72
2023/07/19 10:38:25;;;;;;;8.55;3.67;;;26.60;84.10;;;;;;5109499;28;20383;-70
2023/07/19 10:40:58;;;;;;;17.67;3.60;;;26.60;86.20;;;;;;5111258;28;20038;-70
2023/07/19 10:43:26;;;;;;;9.18;3.83;;;26.90;83.40;;;;;;5114946;27;20050;-71
2023/07/19 10:45:52;;;;;;;10.88;3.70;;;27.20;84.60;;;;;;5110480;27;20023;-73
2023/07/19 10:48:29;;;;;;;10.73;3.15;;;27.20;89.30;;;;;;5110480;28;20487;-69
2023/07/19 10:51:00;;;;;;;5.47;3.53;;;27.20;82.80;;;;;;5103426;28;20035;-70
2023/07/19 10:53:27;;;;;;;8.05;3.45;;;27.30;84.40;;;;;;5112625;27;20050;-69
2023/07/19 10:55:57;;;;;;;9.73;3.55;;;27.50;88.20;;;;;;5111624;27;20038;-71
2023/07/19 10:58:26;;;;;;;12.25;3.90;;;27.30;81.40;;;;;;5092598;28;20379;-71
2023/07/19 11:00:54;;;;;;;12.18;3.85;;;27.40;81.70;;;;;;5110471;28;20048;-71
2023/07/19 11:03:23;;;;;;;5.25;3.55;;;27.20;80.40;;;;;;5109172;28;20058;-69
2023/07/19 11:05:49;;;;;;;12.48;3.97;;;27.00;79.60;;;;;;5108110;28;20468;-68
2023/07/19 11:08:22;;;;;;;7.75;3.58;;;27.20;81.20;;;;;;5108769;28;20035;-70
2023/07/19 11:10:52;;;;;;;9.80;4.00;;;27.40;81.40;;;;;;5110612;28;20042;-71
2023/07/19 11:13:19;;;;;;;;;;;27.40;80.20;;;;;;5114386;27;20031;-69
2023/07/19 11:16:04;;;;;;;10.93;3.60;;;27.40;81.90;;;;;;5112311;27;19920;-71
2023/07/19 11:18:30;;;;;;;6.68;3.67;;;27.50;79.10;;;;;;5109361;28;20042;-71
2023/07/19 11:20:57;;;;;;;7.10;3.40;;;27.70;78.40;;;;;;5103108;28;20112;-70
2023/07/19 11:23:24;;;;;;;10.63;3.50;;;27.70;79.70;;;;;;5108880;28;20096;-71
2023/07/19 11:25:50;;;;;;;7.10;3.42;;;27.30;79.80;;;;;;5094842;28;20024;-71
2023/07/19 11:28:35;;;;;;;14.15;3.88;;;26.90;81.60;;;;;;5102908;28;20032;-71
2023/07/19 11:31:02;;;;;;;7.15;3.65;;;27.00;79.90;;;;;;5110061;28;20084;-69
2023/07/19 11:33:34;;;;;;;7.68;3.45;;;27.30;85.40;;;;;;5114273;27;20066;-69
2023/07/19 11:36:00;;;;;;;7.35;3.25;;;27.40;80.70;;;;;;5110682;28;20023;-71
2023/07/19 11:38:26;;;;;;;5.57;3.42;;;27.10;81.90;;;;;;5109696;28;20042;-70
2023/07/19 11:40:52;;;;;;;8.35;3.63;;;26.80;80.60;;;;;;5109910;28;20032;-71
2023/07/19 11:43:24;;;;;;;9.35;3.47;;;26.70;81.10;;;;;;5114561;27;20031;-70
2023/07/19 11:45:50;;;;;;;7.03;3.22;;;26.50;82.60;;;;;;5110719;28;20421;-71
2023/07/19 11:48:15;;;;;;;12.70;3.65;;;26.40;84.00;;;;;;5109863;28;20031;-71
2023/07/19 11:50:41;;;;;;;7.93;3.63;;;26.40;85.30;;;;;;5109439;28;20057;-69
2023/07/19 11:53:07;;;;;;;7.63;3.13;;;26.70;80.00;;;;;;5114277;27;20043;-72
2023/07/19 11:55:33;;;;;;;5.43;3.40;;;26.90;79.00;;;;;;5114772;27;20043;-71
2023/07/19 11:58:04;;;;;;;8.05;3.10;;;27.40;81.60;;;;;;5110452;28;20035;-71
2023/07/19 12:00:32;;;;;;;11.30;3.20;;;27.80;80.30;;;;;;5109412;28;20024;-70
2023/07/19 12:02:58;;;;;;;7.78;2.70;;;28.00;75.70;;;;;;5108069;27;20061;-71
2023/07/19 12:05:25;;;;;;;7.95;3.30;;;27.70;72.00;;;;;;5107784;27;20027;-69
2023/07/19 12:07:51;;;;;;;5.18;2.88;;;27.40;74.40;;;;;;5109840;28;20035;-71
2023/07/19 12:10:22;;;;;;;7.53;3.08;;;27.40;78.70;;;;;;5110149;28;20041;-72
2023/07/19 12:12:48;;;;;;;7.68;2.88;;;27.40;77.60;;;;;;5113239;27;20070;-70
2023/07/19 12:15:14;;;;;;;8.48;3.10;;;27.30;73.10;;;;;;5109130;28;20028;-71
2023/07/19 12:17:41;;;;;;;11.90;2.75;;;27.40;74.70;;;;;;5109126;28;20023;-70
2023/07/19 12:20:08;;;;;;;6.75;3.90;;;27.70;78.70;;;;;;5109869;28;20031;-71
2023/07/19 12:22:35;;;;;;;7.05;2.70;;;28.00;74.40;;;;;;5108391;28;20031;-72
2023/07/19 12:25:03;;;;;;;6.75;2.78;;;28.20;71.30;;;;;;5116249;27;20028;-71
2023/07/19 12:27:29;;;;;;;8.77;2.67;;;28.30;72.80;;;;;;5109085;28;20038;-71
2023/07/19 12:29:55;;;;;;;4.60;2.83;;;28.50;71.20;;;;;;5109122;28;20741;-70
2023/07/19 12:32:21;;;;;;;6.63;2.67;;;28.80;68.00;;;;;;5108542;28;20062;-69
2023/07/19 12:34:47;;;;;;;6.68;2.67;;;29.00;67.00;;;;;;5108339;28;20032;-71
2023/07/19 12:37:13;;;;;;;4.18;2.58;;;28.90;64.10;;;;;;5110946;27;20063;-70
2023/07/19 12:39:40;;;;;;;9.38;3.08;;;28.30;62.50;;;;;;5110911;27;20031;-70
2023/07/19 12:42:06;;;;;;;7.25;2.80;;;28.30;67.20;;;;;;5109371;28;20050;-72
2023/07/19 12:44:34;;;;;;;7.97;2.63;;;28.10;64.00;;;;;;5107772;28;20121;-71